Time;durP1;ratioP1;P1;durP2;ratioP2;P2;SDS_P1;SDS_P2;PMS_P1;PMS_P2;Temp;Humidity;BMP_temperature;BMP_pressure;BME280_temperature;BME280_humidity;BME280_pressure;Samples;Min_cycle;Max_cycle;Signal;HPM_P1;HPM_P2
2022/07/28 00:01:34;;;;;;;1.05;0.43;;;13.90;99.90;;;;;;4957508;28;20077;-76
2022/07/28 00:03:59;;;;;;;1.05;0.60;;;13.90;99.90;;;;;;4957372;28;20022;-75
2022/07/28 00:06:25;;;;;;;3.50;0.77;;;13.90;99.90;;;;;;4957729;28;20030;-74
2022/07/28 00:08:51;;;;;;;1.08;0.68;;;13.90;99.90;;;;;;4975005;28;20062;-75
2022/07/28 00:11:17;;;;;;;0.30;0.20;;;14.00;99.90;;;;;;4974858;28;20065;-75
2022/07/28 00:13:42;;;;;;;0.30;0.20;;;14.00;99.90;;;;;;4974123;28;20031;-75
2022/07/28 00:16:08;;;;;;;7.45;0.50;;;13.90;99.90;;;;;;4974746;28;20042;-75
2022/07/28 00:18:34;;;;;;;0.93;0.38;;;14.10;99.90;;;;;;4975122;28;20026;-75
2022/07/28 00:21:00;;;;;;;1.95;0.57;;;14.10;99.90;;;;;;4974537;28;20038;-74
2022/07/28 00:23:25;;;;;;;0.60;0.45;;;14.10;99.90;;;;;;4975224;28;20034;-74
2022/07/28 00:25:51;;;;;;;1.85;0.43;;;14.10;99.90;;;;;;4974867;28;20051;-74
2022/07/28 00:28:17;;;;;;;1.08;0.80;;;14.10;99.90;;;;;;4974771;28;20027;-74
2022/07/28 00:30:42;;;;;;;10.80;0.70;;;14.10;99.90;;;;;;4974994;28;20047;-74
2022/07/28 00:33:09;;;;;;;2.33;0.65;;;14.10;99.90;;;;;;4964444;28;20034;-75
2022/07/28 00:35:35;;;;;;;0.20;0.15;;;14.10;99.90;;;;;;4974046;28;20066;-74
2022/07/28 00:38:01;;;;;;;0.88;0.45;;;14.10;99.90;;;;;;4974273;28;20411;-74
2022/07/28 00:43:11;;;;;;;0.60;0.32;;;14.20;99.90;;;;;;4973909;28;20049;-74
2022/07/28 00:45:37;;;;;;;0.32;0.32;;;14.10;99.90;;;;;;4957076;28;20122;-73
2022/07/28 00:48:03;;;;;;;1.20;0.30;;;14.10;99.90;;;;;;4974754;28;20026;-73
2022/07/28 00:50:29;;;;;;;0.30;0.30;;;14.10;99.90;;;;;;4974418;28;20020;-73
2022/07/28 00:52:55;;;;;;;3.00;0.85;;;14.10;99.90;;;;;;4973887;28;20019;-74
2022/07/28 00:55:22;;;;;;;4.07;0.98;;;14.10;99.90;;;;;;4974040;28;20029;-74
2022/07/28 00:57:48;;;;;;;0.82;0.52;;;14.10;99.90;;;;;;4973491;28;20031;-74
2022/07/28 01:00:14;;;;;;;1.55;0.30;;;14.10;99.90;;;;;;4974196;28;20049;-74
2022/07/28 01:02:40;;;;;;;0.10;0.10;;;14.20;99.90;;;;;;4973089;28;20037;-74
2022/07/28 01:05:06;;;;;;;2.60;0.38;;;14.10;99.90;;;;;;4973550;28;20011;-73
2022/07/28 01:07:42;;;;;;;3.33;1.23;;;14.20;99.90;;;;;;4973971;28;20043;-73
2022/07/28 01:10:18;;;;;;;3.72;0.50;;;14.20;99.90;;;;;;4964263;28;20097;-73
2022/07/28 01:13:08;;;;;;;4.07;0.52;;;14.30;99.90;;;;;;4972630;28;20039;-73
2022/07/28 01:15:42;;;;;;;0.85;0.43;;;14.20;99.90;;;;;;4973686;28;20515;-74
2022/07/28 01:18:10;;;;;;;;;;;14.20;99.90;;;;;;4973265;28;20027;-73
2022/07/28 01:20:43;;;;;;;0.50;0.38;;;14.20;99.90;;;;;;4972956;28;20402;-74
2022/07/28 01:23:32;;;;;;;2.55;0.50;;;14.20;99.90;;;;;;4972393;28;20083;-74
2022/07/28 01:26:16;;;;;;;4.38;0.98;;;14.20;99.90;;;;;;4973801;28;20026;-74
2022/07/28 01:29:00;;;;;;;1.60;0.67;;;14.20;99.90;;;;;;4962421;28;20058;-74
2022/07/28 01:31:29;;;;;;;0.17;0.17;;;14.30;99.90;;;;;;4956006;28;20266;-74
2022/07/28 01:34:04;;;;;;;0.88;0.32;;;14.30;99.90;;;;;;4972706;28;20054;-73
2022/07/28 01:36:40;;;;;;;1.77;0.50;;;14.30;99.90;;;;;;4973682;28;20088;-75
2022/07/28 01:39:06;;;;;;;0.45;0.43;;;14.30;99.90;;;;;;4973097;28;20529;-73
2022/07/28 01:41:33;;;;;;;1.20;0.30;;;14.30;99.90;;;;;;4955978;28;20059;-74
2022/07/28 01:44:03;;;;;;;0.82;0.38;;;14.30;99.90;;;;;;4955926;28;20139;-74
2022/07/28 01:46:30;;;;;;;1.58;0.77;;;14.40;99.90;;;;;;4972997;28;20087;-74
2022/07/28 01:48:57;;;;;;;0.40;0.38;;;14.40;99.90;;;;;;4973081;28;20087;-74
2022/07/28 01:51:26;;;;;;;0.77;0.30;;;14.30;99.90;;;;;;4972813;28;20027;-74
2022/07/28 01:53:55;;;;;;;0.47;0.35;;;14.40;99.90;;;;;;4973191;28;20166;-76
2022/07/28 01:56:22;;;;;;;0.43;0.20;;;14.40;99.90;;;;;;4973513;28;20018;-75
2022/07/28 01:58:51;;;;;;;0.32;0.30;;;14.40;99.90;;;;;;4972957;28;20031;-74
2022/07/28 02:01:19;;;;;;;1.55;0.75;;;14.40;99.90;;;;;;4973237;28;20042;-75
2022/07/28 02:03:46;;;;;;;5.28;0.93;;;14.40;99.90;;;;;;4955766;28;20050;-76
2022/07/28 02:06:14;;;;;;;3.38;1.10;;;14.40;99.90;;;;;;4972791;28;20031;-74
2022/07/28 02:08:40;;;;;;;0.73;0.60;;;14.40;99.90;;;;;;4972460;28;20085;-74
2022/07/28 02:13:51;;;;;;;;;;;14.30;99.90;;;;;;4973667;28;20090;-75
2022/07/28 02:16:21;;;;;;;5.30;0.40;;;14.30;99.90;;;;;;4973620;28;19906;-74
2022/07/28 02:18:49;;;;;;;1.02;0.40;;;14.30;99.90;;;;;;4972969;28;20027;-75
2022/07/28 02:21:16;;;;;;;0.43;0.30;;;14.30;99.90;;;;;;4973138;28;20043;-75
2022/07/28 02:23:44;;;;;;;0.82;0.50;;;14.30;99.90;;;;;;4973162;28;20043;-75
2022/07/28 02:26:12;;;;;;;2.47;0.50;;;14.30;99.90;;;;;;4972690;28;20038;-74
2022/07/28 02:28:42;;;;;;;1.33;0.60;;;14.30;99.90;;;;;;4972451;28;20038;-75
2022/07/28 02:31:12;;;;;;;1.17;0.65;;;14.30;99.90;;;;;;4955569;28;20066;-74
2022/07/28 02:33:40;;;;;;;2.72;0.60;;;14.30;99.90;;;;;;4955303;28;20039;-74
2022/07/28 02:36:27;;;;;;;0.28;0.28;;;14.30;99.90;;;;;;4976048;28;20035;-74
2022/07/28 02:38:55;;;;;;;0.38;0.38;;;14.20;99.90;;;;;;4967049;28;20031;-75
2022/07/28 02:41:27;;;;;;;12.00;0.98;;;14.20;99.90;;;;;;4976492;28;20121;-74
2022/07/28 02:43:57;;;;;;;3.72;0.73;;;14.20;99.90;;;;;;4976594;28;20050;-74
2022/07/28 02:46:25;;;;;;;0.50;0.45;;;14.30;99.90;;;;;;4976940;28;20063;-74
2022/07/28 02:49:01;;;;;;;5.53;0.63;;;14.30;99.90;;;;;;4976672;28;20054;-74
2022/07/28 02:51:31;;;;;;;0.73;0.65;;;14.30;99.90;;;;;;4977031;28;20114;-74
2022/07/28 02:53:58;;;;;;;0.47;0.40;;;14.30;99.90;;;;;;4959062;28;20029;-76
2022/07/28 02:56:25;;;;;;;0.82;0.40;;;14.30;99.90;;;;;;4959137;28;21394;-74
2022/07/28 02:58:53;;;;;;;2.95;0.75;;;14.30;99.90;;;;;;4976553;28;20061;-75
2022/07/28 03:01:19;;;;;;;3.28;0.75;;;14.30;99.90;;;;;;4975726;28;20058;-75
2022/07/28 03:03:47;;;;;;;1.00;0.60;;;14.40;99.90;;;;;;4976240;28;20092;-75
2022/07/28 03:06:14;;;;;;;0.75;0.40;;;14.30;99.90;;;;;;4976288;28;20042;-74
2022/07/28 03:08:40;;;;;;;0.75;0.40;;;14.30;99.90;;;;;;4975749;28;20034;-74
2022/07/28 03:11:07;;;;;;;1.67;0.70;;;14.30;99.90;;;;;;4958844;28;20031;-74
2022/07/28 03:13:32;;;;;;;6.85;0.73;;;14.20;99.90;;;;;;4975974;28;20033;-75
2022/07/28 03:15:58;;;;;;;1.02;0.70;;;14.20;99.90;;;;;;4975631;28;20066;-74
2022/07/28 03:18:26;;;;;;;0.32;0.10;;;14.20;99.90;;;;;;4975908;28;20031;-76
2022/07/28 03:20:52;;;;;;;9.45;1.10;;;14.20;99.90;;;;;;4958549;28;20098;-75
2022/07/28 03:23:23;;;;;;;2.25;0.55;;;14.20;99.90;;;;;;4974131;28;20087;-75
2022/07/28 03:25:52;;;;;;;4.93;0.95;;;14.20;99.90;;;;;;4959060;28;20035;-75
2022/07/28 03:28:22;;;;;;;0.82;0.68;;;14.20;99.90;;;;;;4975866;28;20039;-76
2022/07/28 03:30:59;;;;;;;0.95;0.57;;;14.20;99.90;;;;;;4975877;28;20031;-75
2022/07/28 03:33:25;;;;;;;3.38;1.05;;;14.10;99.90;;;;;;4975314;28;20019;-74
2022/07/28 03:35:54;;;;;;;1.00;0.52;;;14.00;99.90;;;;;;4975090;28;20094;-75
2022/07/28 03:38:24;;;;;;;7.65;1.13;;;14.00;99.90;;;;;;4976117;28;20019;-74
2022/07/28 03:40:53;;;;;;;1.38;0.80;;;13.90;99.90;;;;;;4958477;28;20046;-75
2022/07/28 03:43:23;;;;;;;5.30;1.10;;;13.90;99.90;;;;;;4976033;28;20137;-75
2022/07/28 03:45:50;;;;;;;0.60;0.52;;;13.90;99.90;;;;;;4975441;28;20086;-75
2022/07/28 03:48:16;;;;;;;0.68;0.35;;;13.90;99.90;;;;;;4975839;28;20034;-75
2022/07/28 03:50:42;;;;;;;3.47;1.20;;;13.90;99.90;;;;;;4957321;28;20035;-74
2022/07/28 03:53:17;;;;;;;0.93;0.70;;;13.80;99.90;;;;;;4975278;28;20019;-74
2022/07/28 03:55:45;;;;;;;4.25;1.27;;;13.80;99.90;;;;;;4975813;28;20026;-74
2022/07/28 03:58:10;;;;;;;1.15;0.73;;;13.80;99.90;;;;;;4957608;28;20042;-75
2022/07/28 04:00:36;;;;;;;6.85;0.85;;;13.80;99.90;;;;;;4969288;28;20039;-74
2022/07/28 04:03:01;;;;;;;6.00;0.68;;;13.70;99.90;;;;;;4973541;28;20488;-74
2022/07/28 04:05:27;;;;;;;2.42;0.73;;;13.70;99.90;;;;;;4959510;28;20034;-74
2022/07/28 04:07:53;;;;;;;1.63;0.82;;;13.80;99.90;;;;;;4974456;28;20143;-73
2022/07/28 04:10:19;;;;;;;1.00;0.70;;;13.80;99.90;;;;;;4972374;28;20058;-73
2022/07/28 04:12:44;;;;;;;0.75;0.68;;;13.80;99.90;;;;;;4974169;28;20159;-74
2022/07/28 04:15:14;;;;;;;0.38;0.32;;;13.90;99.90;;;;;;4974790;28;20034;-73
2022/07/28 04:17:40;;;;;;;1.88;0.70;;;13.90;99.90;;;;;;4951907;28;20027;-74
2022/07/28 04:20:07;;;;;;;2.47;1.00;;;14.00;99.90;;;;;;4971135;28;20183;-73
2022/07/28 04:22:34;;;;;;;1.25;0.40;;;14.00;99.90;;;;;;4964313;28;20058;-73
2022/07/28 04:25:03;;;;;;;2.22;0.80;;;14.00;99.90;;;;;;4953651;28;20063;-73
2022/07/28 04:27:28;;;;;;;1.20;0.70;;;14.10;99.90;;;;;;4972616;28;20113;-74
2022/07/28 04:29:54;;;;;;;0.68;0.52;;;14.20;99.90;;;;;;4973541;28;20031;-74
2022/07/28 04:32:20;;;;;;;2.30;1.13;;;14.20;99.90;;;;;;4974650;28;20341;-74
2022/07/28 04:34:46;;;;;;;1.38;0.90;;;14.20;99.90;;;;;;4975520;28;20514;-73
2022/07/28 04:37:13;;;;;;;2.60;1.05;;;14.20;99.90;;;;;;4973993;28;20046;-74
2022/07/28 04:39:39;;;;;;;2.63;0.60;;;14.30;99.90;;;;;;4974007;28;20027;-73
2022/07/28 04:42:05;;;;;;;1.85;0.93;;;14.20;99.90;;;;;;4958951;28;20070;-73
2022/07/28 04:44:31;;;;;;;2.97;1.27;;;14.20;99.90;;;;;;4975725;28;20456;-74
2022/07/28 04:46:56;;;;;;;2.45;0.68;;;14.20;99.90;;;;;;4975403;28;20037;-74
2022/07/28 04:49:24;;;;;;;5.05;1.33;;;14.20;99.90;;;;;;4972270;28;20031;-73
2022/07/28 04:51:51;;;;;;;2.05;0.93;;;14.20;99.90;;;;;;4976265;28;20109;-72
2022/07/28 04:54:17;;;;;;;2.15;0.77;;;14.30;99.90;;;;;;4975239;28;20030;-74
2022/07/28 04:56:44;;;;;;;1.75;0.77;;;14.30;99.90;;;;;;4975132;28;20026;-73
2022/07/28 04:59:09;;;;;;;1.05;0.65;;;14.30;99.90;;;;;;4972690;28;20023;-73
2022/07/28 05:01:37;;;;;;;0.95;0.60;;;14.30;99.90;;;;;;4975814;28;20486;-75
2022/07/28 05:04:04;;;;;;;2.22;1.02;;;14.30;99.90;;;;;;4973697;28;20020;-74
2022/07/28 05:06:30;;;;;;;1.45;0.50;;;14.30;99.90;;;;;;4974662;28;20066;-73
2022/07/28 05:08:55;;;;;;;0.70;0.50;;;14.40;99.90;;;;;;4973500;28;20031;-73
2022/07/28 05:11:21;;;;;;;3.30;1.10;;;14.40;99.90;;;;;;4955294;28;20035;-74
2022/07/28 05:13:46;;;;;;;2.55;1.08;;;14.50;99.90;;;;;;4974509;28;20037;-75
2022/07/28 05:16:12;;;;;;;4.00;1.40;;;14.30;99.90;;;;;;4956626;28;20396;-74
2022/07/28 05:18:37;;;;;;;10.35;0.80;;;14.50;99.90;;;;;;4974362;28;20039;-73
2022/07/28 05:21:03;;;;;;;1.00;0.50;;;14.40;99.90;;;;;;4958100;28;20448;-74
2022/07/28 05:23:29;;;;;;;6.35;1.00;;;14.60;99.90;;;;;;4974956;28;20082;-74
2022/07/28 05:25:55;;;;;;;3.20;0.68;;;14.50;99.90;;;;;;4956033;28;20126;-73
2022/07/28 05:28:21;;;;;;;0.82;0.60;;;14.60;99.90;;;;;;4956800;28;20076;-73
2022/07/28 05:30:47;;;;;;;3.17;0.57;;;14.60;99.90;;;;;;4975506;28;20399;-74
2022/07/28 05:33:16;;;;;;;0.88;0.50;;;14.70;99.90;;;;;;4974650;28;20038;-73
2022/07/28 05:35:49;;;;;;;12.43;0.77;;;14.70;99.90;;;;;;4974744;28;20743;-74
2022/07/28 05:38:14;;;;;;;0.95;0.65;;;14.70;99.90;;;;;;4975353;28;20840;-73
2022/07/28 05:40:40;;;;;;;1.00;0.57;;;14.70;99.90;;;;;;4972977;28;20043;-73
2022/07/28 05:43:06;;;;;;;1.15;0.45;;;14.70;99.90;;;;;;4956830;28;20062;-74
2022/07/28 05:45:32;;;;;;;1.40;0.55;;;14.80;99.90;;;;;;4974366;28;20108;-74
2022/07/28 05:47:58;;;;;;;1.00;0.52;;;14.80;99.90;;;;;;4955963;28;20034;-74
2022/07/28 05:50:24;;;;;;;1.52;0.82;;;14.90;99.90;;;;;;4974086;28;20027;-73
2022/07/28 05:52:51;;;;;;;0.52;0.50;;;14.90;99.90;;;;;;4972581;28;20034;-74
2022/07/28 05:55:18;;;;;;;0.57;0.47;;;15.00;99.90;;;;;;4973420;28;20024;-75
2022/07/28 05:57:44;;;;;;;1.58;0.65;;;15.00;99.90;;;;;;4974135;28;20083;-73
2022/07/28 06:00:12;;;;;;;2.70;1.00;;;15.00;99.90;;;;;;4974227;28;20046;-73
2022/07/28 06:02:39;;;;;;;2.08;0.57;;;15.10;99.90;;;;;;4973967;28;20043;-74
2022/07/28 06:05:05;;;;;;;1.10;0.52;;;15.20;99.90;;;;;;4955894;28;20023;-74
2022/07/28 06:07:31;;;;;;;7.43;0.73;;;15.10;99.90;;;;;;4972285;28;20041;-72
2022/07/28 06:09:56;;;;;;;0.63;0.40;;;15.10;99.90;;;;;;4973154;28;20114;-74
2022/07/28 06:12:22;;;;;;;2.38;0.68;;;15.20;99.90;;;;;;4973419;28;20027;-74
2022/07/28 06:14:48;;;;;;;1.65;0.47;;;15.20;99.90;;;;;;4973373;28;20031;-74
2022/07/28 06:17:14;;;;;;;1.45;0.70;;;15.20;99.90;;;;;;4957255;28;20110;-75
2022/07/28 06:19:41;;;;;;;0.95;0.45;;;15.20;99.90;;;;;;4973775;28;20047;-73
2022/07/28 06:22:07;;;;;;;2.75;0.70;;;15.20;99.90;;;;;;4972986;28;20346;-73
2022/07/28 06:24:32;;;;;;;3.17;1.25;;;15.20;99.90;;;;;;4972621;28;20058;-73
2022/07/28 06:27:00;;;;;;;0.73;0.40;;;15.30;99.90;;;;;;4973866;28;20042;-74
2022/07/28 06:29:25;;;;;;;0.17;0.17;;;15.30;99.90;;;;;;4957387;28;20027;-75
2022/07/28 06:31:51;;;;;;;1.08;0.52;;;15.40;99.90;;;;;;4972801;28;20166;-73
2022/07/28 06:34:17;;;;;;;1.92;0.73;;;15.40;99.90;;;;;;4973400;28;20420;-74
2022/07/28 06:36:42;;;;;;;3.13;0.63;;;15.40;99.90;;;;;;4973378;28;20042;-72
2022/07/28 06:39:08;;;;;;;2.10;0.75;;;15.50;99.90;;;;;;4955116;28;20027;-72
2022/07/28 06:41:34;;;;;;;0.30;0.30;;;15.60;99.90;;;;;;4955687;28;20049;-74
2022/07/28 06:43:59;;;;;;;12.40;1.27;;;15.70;99.90;;;;;;4972096;28;20047;-73
2022/07/28 06:46:25;;;;;;;0.93;0.60;;;15.70;99.90;;;;;;4956375;28;20027;-73
2022/07/28 06:48:50;;;;;;;1.08;0.65;;;15.90;99.90;;;;;;4972679;28;20030;-74
2022/07/28 06:51:18;;;;;;;9.98;0.85;;;15.90;99.90;;;;;;4955196;28;20114;-74
2022/07/28 06:53:47;;;;;;;1.65;0.57;;;15.90;99.90;;;;;;4971635;28;20031;-72
2022/07/28 06:56:12;;;;;;;1.15;0.68;;;15.90;99.90;;;;;;4969642;28;20105;-73
2022/07/28 06:58:38;;;;;;;1.77;0.77;;;15.80;99.90;;;;;;4971547;28;20506;-74
2022/07/28 07:01:06;;;;;;;0.40;0.40;;;15.90;99.90;;;;;;4969637;28;20039;-72
2022/07/28 07:03:32;;;;;;;1.50;0.65;;;15.90;99.90;;;;;;4956478;28;20027;-72
2022/07/28 07:05:58;;;;;;;2.58;0.77;;;16.00;99.90;;;;;;4972732;28;20023;-74
2022/07/28 07:08:24;;;;;;;2.63;0.88;;;16.00;99.90;;;;;;4964816;28;20045;-73
2022/07/28 07:10:50;;;;;;;7.45;0.93;;;16.10;99.90;;;;;;4968504;28;20059;-74
2022/07/28 07:13:16;;;;;;;0.32;0.32;;;16.10;99.90;;;;;;4971111;28;20039;-73
2022/07/28 07:15:41;;;;;;;1.20;0.55;;;16.20;99.90;;;;;;4953353;28;20027;-72
2022/07/28 07:18:07;;;;;;;4.68;0.70;;;16.20;99.90;;;;;;4954152;28;20035;-73
2022/07/28 07:20:32;;;;;;;3.03;0.85;;;16.30;99.90;;;;;;4954398;28;20038;-72
2022/07/28 07:22:58;;;;;;;1.33;0.95;;;16.30;99.90;;;;;;4973326;28;20027;-73
2022/07/28 07:25:24;;;;;;;3.10;1.27;;;16.40;99.90;;;;;;4976248;28;20043;-74
2022/07/28 07:27:49;;;;;;;0.88;0.60;;;16.40;99.90;;;;;;4975965;28;20035;-74
2022/07/28 07:30:15;;;;;;;0.55;0.30;;;16.40;99.90;;;;;;4977166;28;20031;-74
2022/07/28 07:32:41;;;;;;;4.57;1.08;;;16.50;99.90;;;;;;4973913;28;20034;-73
2022/07/28 07:35:07;;;;;;;0.90;0.60;;;16.50;99.90;;;;;;4974893;28;20055;-74
2022/07/28 07:37:33;;;;;;;1.25;0.52;;;16.50;99.90;;;;;;4976006;28;20027;-73
2022/07/28 07:40:04;;;;;;;2.92;0.95;;;16.50;99.90;;;;;;4976098;28;20066;-73
2022/07/28 07:42:30;;;;;;;3.78;0.47;;;16.50;99.90;;;;;;4970540;28;20232;-73
2022/07/28 07:44:56;;;;;;;1.05;0.63;;;16.50;99.90;;;;;;4971498;28;20031;-73
2022/07/28 07:47:22;;;;;;;0.85;0.40;;;16.50;99.90;;;;;;4957804;28;20090;-73
2022/07/28 07:49:48;;;;;;;1.90;0.63;;;16.50;99.90;;;;;;4958786;28;20398;-72
2022/07/28 07:52:14;;;;;;;1.90;0.90;;;16.50;99.90;;;;;;4976860;28;20023;-73
2022/07/28 07:54:40;;;;;;;2.10;0.57;;;16.60;99.90;;;;;;4975916;28;20018;-73
2022/07/28 07:57:06;;;;;;;2.33;0.70;;;16.60;99.90;;;;;;4958231;28;20023;-74
2022/07/28 07:59:31;;;;;;;2.00;1.00;;;16.70;99.90;;;;;;4974202;28;20045;-72
2022/07/28 08:01:57;;;;;;;4.22;0.85;;;16.70;99.90;;;;;;4971904;28;20035;-75
2022/07/28 08:04:23;;;;;;;1.30;0.73;;;16.70;99.90;;;;;;4974404;28;20031;-74
2022/07/28 08:06:50;;;;;;;5.85;0.80;;;16.80;99.90;;;;;;4953150;28;20035;-73
2022/07/28 08:09:17;;;;;;;3.20;0.52;;;16.80;99.90;;;;;;4975051;28;20022;-72
2022/07/28 08:11:43;;;;;;;0.85;0.63;;;16.90;99.90;;;;;;4975069;28;20102;-72
2022/07/28 08:14:09;;;;;;;1.75;0.80;;;16.90;99.90;;;;;;4974928;28;20531;-73
2022/07/28 08:16:34;;;;;;;1.67;0.93;;;17.00;99.90;;;;;;4975164;28;20025;-75
2022/07/28 08:19:00;;;;;;;1.48;1.10;;;17.00;99.90;;;;;;4975370;28;20023;-72
2022/07/28 08:21:28;;;;;;;0.63;0.52;;;17.00;99.90;;;;;;4956074;28;20051;-73
2022/07/28 08:23:54;;;;;;;1.15;0.65;;;17.10;99.90;;;;;;4957724;28;20066;-74
2022/07/28 08:26:21;;;;;;;0.60;0.45;;;17.10;99.90;;;;;;4975025;28;20094;-73
2022/07/28 08:28:47;;;;;;;20.48;0.60;;;17.20;99.90;;;;;;4957463;28;20027;-73
2022/07/28 08:31:15;;;;;;;0.85;0.43;;;17.20;99.90;;;;;;4974363;28;20070;-73
2022/07/28 08:33:41;;;;;;;0.63;0.43;;;17.30;99.90;;;;;;4974554;28;20026;-73
2022/07/28 08:36:07;;;;;;;0.30;0.20;;;17.30;99.90;;;;;;4974687;28;20091;-74
2022/07/28 08:38:32;;;;;;;0.40;0.28;;;17.40;99.90;;;;;;4975223;28;20032;-73
2022/07/28 08:41:01;;;;;;;0.50;0.40;;;17.40;99.90;;;;;;4973836;28;20094;-74
2022/07/28 08:43:32;;;;;;;2.40;1.10;;;17.50;99.90;;;;;;4973149;28;20035;-73
2022/07/28 08:45:59;;;;;;;2.40;0.40;;;17.50;99.90;;;;;;4974539;28;20030;-73
2022/07/28 08:48:30;;;;;;;0.57;0.40;;;17.60;99.90;;;;;;4973936;28;20029;-72
2022/07/28 08:51:00;;;;;;;0.28;0.25;;;17.70;99.90;;;;;;4973820;28;20023;-71
2022/07/28 08:53:29;;;;;;;0.60;0.30;;;17.70;99.90;;;;;;4973726;28;20024;-75
2022/07/28 08:56:00;;;;;;;0.93;0.40;;;17.80;99.90;;;;;;4974356;28;20023;-74
2022/07/28 08:58:26;;;;;;;5.97;0.73;;;17.80;99.90;;;;;;4970862;28;20023;-71
2022/07/28 09:00:51;;;;;;;2.53;0.70;;;17.90;99.90;;;;;;4971095;28;20047;-74
2022/07/28 09:03:17;;;;;;;0.20;0.20;;;18.00;99.90;;;;;;4973810;28;20163;-74
2022/07/28 09:05:43;;;;;;;0.22;0.20;;;18.10;99.90;;;;;;4975008;28;20420;-74
2022/07/28 09:08:11;;;;;;;0.20;0.15;;;18.30;99.90;;;;;;4973563;28;20054;-74
2022/07/28 09:10:37;;;;;;;0.13;0.13;;;18.30;99.90;;;;;;4974875;28;20027;-73
2022/07/28 09:13:02;;;;;;;0.28;0.17;;;18.40;99.90;;;;;;4973783;28;20141;-72
2022/07/28 09:15:28;;;;;;;0.40;0.25;;;18.50;99.90;;;;;;4974315;28;20090;-71
2022/07/28 09:17:54;;;;;;;1.75;0.15;;;18.50;99.90;;;;;;4971373;28;20122;-73
2022/07/28 09:20:20;;;;;;;0.57;0.30;;;18.50;99.90;;;;;;4954858;28;20027;-73
2022/07/28 09:23:00;;;;;;;3.30;0.20;;;18.50;99.90;;;;;;4971194;28;20023;-72
2022/07/28 09:25:27;;;;;;;0.55;0.30;;;18.50;99.90;;;;;;4969676;28;20053;-72
2022/07/28 09:27:55;;;;;;;1.73;0.40;;;18.60;99.90;;;;;;4944200;28;20038;-72
2022/07/28 09:30:29;;;;;;;1.73;0.25;;;18.60;99.90;;;;;;4966898;28;20043;-73
2022/07/28 09:33:28;;;;;;;1.05;0.30;;;18.60;99.90;;;;;;4953247;28;20138;-71
2022/07/28 09:35:56;;;;;;;0.70;0.32;;;18.60;99.90;;;;;;4925692;29;20052;-72
2022/07/28 09:38:26;;;;;;;1.05;0.43;;;18.60;99.90;;;;;;4931807;29;20413;-72
2022/07/28 09:41:06;;;;;;;1.35;0.50;;;18.70;99.90;;;;;;4934052;29;20032;-74
2022/07/28 09:43:35;;;;;;;0.10;0.10;;;18.80;99.90;;;;;;4931438;29;20043;-73
2022/07/28 09:46:06;;;;;;;6.75;0.30;;;18.80;99.90;;;;;;4931841;29;20580;-71
2022/07/28 09:48:33;;;;;;;2.65;0.95;;;18.80;99.90;;;;;;4932247;29;20094;-73
2022/07/28 09:51:12;;;;;;;0.88;0.35;;;18.90;99.90;;;;;;4933507;29;20056;-71
2022/07/28 09:53:38;;;;;;;3.45;0.45;;;18.90;99.90;;;;;;4933743;29;20068;-72
2022/07/28 09:56:04;;;;;;;4.95;0.82;;;18.90;99.90;;;;;;4934434;29;20028;-71
2022/07/28 09:58:30;;;;;;;2.15;0.40;;;19.00;99.90;;;;;;4934685;29;20046;-71
2022/07/28 10:01:07;;;;;;;0.65;0.38;;;19.00;99.90;;;;;;4934566;29;20089;-72
2022/07/28 10:03:35;;;;;;;0.20;0.20;;;19.10;99.90;;;;;;4934138;29;20034;-72
2022/07/28 10:06:06;;;;;;;5.43;0.68;;;19.10;99.90;;;;;;4933732;29;20020;-71
2022/07/28 10:08:50;;;;;;;1.77;0.80;;;19.20;99.90;;;;;;4939832;29;20034;-73
2022/07/28 10:11:19;;;;;;;0.75;0.40;;;19.30;99.90;;;;;;4932974;29;20043;-73
2022/07/28 10:14:02;;;;;;;1.27;0.40;;;19.30;99.90;;;;;;4933565;29;20189;-74
2022/07/28 10:16:40;;;;;;;0.40;0.30;;;19.30;99.90;;;;;;4933176;29;20040;-73
2022/07/28 10:19:06;;;;;;;0.10;0.10;;;19.30;99.90;;;;;;4933636;29;20032;-74
2022/07/28 10:21:39;;;;;;;1.10;0.60;;;19.40;99.90;;;;;;4932452;29;20047;-72
2022/07/28 10:24:06;;;;;;;0.43;0.20;;;19.40;99.90;;;;;;4933372;29;20035;-72
2022/07/28 10:26:37;;;;;;;0.50;0.40;;;19.40;99.90;;;;;;4932531;29;20024;-72
2022/07/28 10:29:07;;;;;;;1.27;0.32;;;19.40;99.90;;;;;;4934165;29;20043;-74
2022/07/28 10:31:36;;;;;;;5.53;0.50;;;19.50;99.90;;;;;;4933908;29;20039;-73
2022/07/28 13:23:52;;;;;;;0.85;0.40;;;24.10;99.90;;;;;;5190766;23;20054;-73
2022/07/28 13:26:43;;;;;;;1.55;0.60;;;23.90;99.90;;;;;;4958910;28;21436;-73
2022/07/28 13:29:11;;;;;;;0.43;0.13;;;24.20;99.90;;;;;;4979152;28;20027;-73
2022/07/28 13:31:38;;;;;;;0.30;0.20;;;24.70;99.90;;;;;;4981906;28;20038;-72
2022/07/28 13:34:08;;;;;;;1.75;0.35;;;25.10;99.90;;;;;;4982304;28;20026;-71
2022/07/28 13:36:36;;;;;;;1.65;0.40;;;25.50;99.90;;;;;;4963394;28;20037;-74
2022/07/28 13:39:03;;;;;;;3.13;0.65;;;25.70;99.90;;;;;;4989892;28;20106;-73
2022/07/28 13:41:29;;;;;;;3.90;0.43;;;26.10;99.90;;;;;;4981789;28;20039;-73
2022/07/28 13:43:57;;;;;;;0.10;0.10;;;26.30;99.90;;;;;;4962794;28;20050;-72
2022/07/28 13:46:24;;;;;;;1.85;0.40;;;26.20;99.90;;;;;;4983072;28;20014;-72
2022/07/28 13:48:50;;;;;;;3.63;0.40;;;26.10;99.90;;;;;;4983087;28;20391;-71
2022/07/28 13:51:15;;;;;;;2.05;0.43;;;26.10;99.90;;;;;;4964726;28;20038;-72
2022/07/28 13:53:41;;;;;;;1.75;0.50;;;25.90;99.90;;;;;;4982502;28;20034;-73
2022/07/28 13:56:08;;;;;;;0.73;0.35;;;26.00;99.90;;;;;;4983393;28;20114;-71
2022/07/28 13:58:34;;;;;;;0.57;0.40;;;26.10;99.90;;;;;;4965044;28;20391;-73
2022/07/28 14:01:00;;;;;;;0.17;0.10;;;26.40;99.90;;;;;;4983240;28;20053;-72
2022/07/28 14:03:27;;;;;;;0.38;0.32;;;26.70;99.90;;;;;;4965332;28;20023;-73
2022/07/28 14:05:53;;;;;;;0.47;0.20;;;26.90;99.90;;;;;;4982324;28;20065;-74
2022/07/28 14:08:19;;;;;;;1.13;0.57;;;27.00;99.90;;;;;;4982844;28;20026;-73
2022/07/28 14:10:46;;;;;;;2.60;0.57;;;27.30;99.90;;;;;;4982706;28;20082;-73
2022/07/28 14:13:12;;;;;;;0.32;0.20;;;27.60;99.90;;;;;;4982881;28;20023;-73
2022/07/28 14:15:37;;;;;;;7.75;0.45;;;27.80;99.90;;;;;;4982153;28;20603;-73
2022/07/28 14:18:03;;;;;;;2.78;0.20;;;28.00;99.90;;;;;;4982554;28;20019;-72
2022/07/28 14:20:29;;;;;;;1.40;0.35;;;28.10;99.90;;;;;;4982542;28;20027;-73
2022/07/28 14:22:57;;;;;;;4.78;0.40;;;28.10;99.90;;;;;;4982642;28;20030;-73
2022/07/28 14:25:22;;;;;;;0.13;0.10;;;28.00;99.90;;;;;;4981994;28;20110;-73
2022/07/28 14:27:53;;;;;;;0.15;0.10;;;28.00;99.90;;;;;;4983002;28;20054;-73
2022/07/28 14:30:20;;;;;;;0.40;0.30;;;28.10;99.90;;;;;;4964323;28;20023;-74
2022/07/28 14:32:45;;;;;;;0.70;0.40;;;28.40;99.90;;;;;;4982366;28;20023;-73
2022/07/28 14:35:11;;;;;;;0.77;0.20;;;28.70;99.90;;;;;;4983351;28;20045;-73
2022/07/28 14:37:39;;;;;;;0.40;0.30;;;28.90;99.90;;;;;;4982592;28;20038;-75
2022/07/28 14:40:06;;;;;;;2.17;0.35;;;29.10;99.90;;;;;;4976677;28;20039;-74
2022/07/28 14:42:32;;;;;;;0.57;0.40;;;29.20;99.90;;;;;;4961275;28;20038;-74
2022/07/28 14:44:58;;;;;;;1.65;0.50;;;29.20;99.90;;;;;;4978729;28;20034;-74
2022/07/28 14:47:25;;;;;;;2.08;0.40;;;29.20;99.90;;;;;;4980739;28;20027;-72
2022/07/28 14:49:51;;;;;;;0.43;0.32;;;29.30;99.90;;;;;;4962924;28;20102;-74
2022/07/28 14:52:16;;;;;;;0.70;0.40;;;29.30;99.90;;;;;;4980676;28;20858;-74
2022/07/28 14:54:43;;;;;;;3.25;0.55;;;29.30;99.90;;;;;;4980632;28;20053;-75
2022/07/28 14:57:09;;;;;;;0.35;0.35;;;29.50;99.90;;;;;;4981484;28;20034;-74
2022/07/28 14:59:35;;;;;;;0.73;0.35;;;29.80;99.90;;;;;;4981194;28;20028;-74
2022/07/28 15:02:01;;;;;;;4.35;0.63;;;30.10;99.90;;;;;;4981287;28;20458;-73
2022/07/28 15:04:27;;;;;;;2.97;0.32;;;30.20;99.50;;;;;;4963304;28;20042;-73
2022/07/28 15:06:52;;;;;;;0.47;0.20;;;30.30;98.70;;;;;;4981625;28;20445;-74
2022/07/28 15:09:19;;;;;;;3.47;0.20;;;30.30;98.90;;;;;;4963604;28;20050;-73
2022/07/28 15:11:46;;;;;;;6.80;0.25;;;30.40;98.70;;;;;;4980614;28;20034;-72
2022/07/28 15:14:13;;;;;;;0.98;0.40;;;30.30;98.40;;;;;;4963054;28;20177;-74
2022/07/28 15:16:38;;;;;;;1.58;0.50;;;30.30;97.90;;;;;;4980408;28;20034;-72
2022/07/28 15:19:05;;;;;;;0.93;0.20;;;30.20;98.00;;;;;;4962371;28;20041;-74
2022/07/28 15:21:31;;;;;;;1.20;0.20;;;30.40;98.00;;;;;;4962597;28;20053;-74
2022/07/28 15:23:57;;;;;;;0.70;0.17;;;30.50;97.30;;;;;;4980919;28;20394;-74
2022/07/28 15:26:22;;;;;;;0.40;0.38;;;30.80;97.70;;;;;;4982093;28;20039;-73
2022/07/28 15:28:48;;;;;;;2.22;0.30;;;30.80;97.00;;;;;;4981530;28;20099;-73
2022/07/28 15:31:15;;;;;;;3.60;0.32;;;30.90;97.00;;;;;;4963635;28;20034;-74
2022/07/28 15:33:41;;;;;;;0.70;0.30;;;31.00;96.70;;;;;;4981539;28;20030;-73
2022/07/28 15:36:07;;;;;;;1.95;0.60;;;31.00;96.70;;;;;;4979023;28;20214;-73
2022/07/28 15:38:34;;;;;;;0.30;0.17;;;30.80;96.80;;;;;;4981333;28;20117;-72
2022/07/28 15:41:00;;;;;;;1.85;0.40;;;30.80;96.80;;;;;;4980830;28;20050;-73
2022/07/28 15:43:27;;;;;;;2.15;0.25;;;30.70;96.60;;;;;;4984654;28;20019;-72
2022/07/28 15:45:55;;;;;;;0.10;0.00;;;30.70;96.60;;;;;;4985335;28;20046;-73